Time;durP1;ratioP1;P1;durP2;ratioP2;P2;SDS_P1;SDS_P2;PMS_P1;PMS_P2;Temp;Humidity;BMP_temperature;BMP_pressure;BME280_temperature;BME280_humidity;BME280_pressure;Samples;Min_cycle;Max_cycle;Signal;HPM_P1;HPM_P2
2022/12/08 00:01:25;;;;;;;19.35;9.63;;;;;;;;;;5070650;28;20027;-57
2022/12/08 00:03:50;;;;;;;11.88;6.93;;;;;;;;;;5075431;28;20017;-57
2022/12/08 00:09:23;;;;;;;17.40;8.10;;;;;;;;;;5077590;28;20047;-56
2022/12/08 00:11:52;;;;;;;20.73;9.10;;;;;;;;;;5070016;28;20028;-57
2022/12/08 00:14:19;;;;;;;21.33;8.93;;;;;;;;;;5068637;28;20083;-57
2022/12/08 00:16:44;;;;;;;17.17;7.85;;;;;;;;;;5072401;28;20027;-57
2022/12/08 00:19:10;;;;;;;21.40;8.68;;;;;;;;;;5072705;28;20110;-57
2022/12/08 00:21:35;;;;;;;18.45;8.80;;;;;;;;;;5075305;28;20506;-58
2022/12/08 00:24:00;;;;;;;14.30;7.43;;;;;;;;;;5069277;28;20025;-57
2022/12/08 00:26:25;;;;;;;17.83;8.88;;;;;;;;;;5067640;28;20028;-57
2022/12/08 00:28:51;;;;;;;18.90;9.93;;;;;;;;;;5077341;28;20028;-57
2022/12/08 00:31:16;;;;;;;17.25;8.68;;;;;;;;;;5076364;28;20064;-57
2022/12/08 00:33:41;;;;;;;17.17;7.40;;;;;;;;;;5073237;28;20032;-57
2022/12/08 00:36:07;;;;;;;18.98;8.90;;;;;;;;;;5074895;28;20032;-58
2022/12/08 00:38:32;;;;;;;16.33;9.00;;;;;;;;;;5074371;28;20031;-57
2022/12/08 00:40:58;;;;;;;15.52;7.05;;;;;;;;;;5071878;28;20553;-57
2022/12/08 00:43:23;;;;;;;19.77;9.02;;;;;;;;;;5079991;28;20451;-57
2022/12/08 00:45:48;;;;;;;14.32;6.68;;;;;;;;;;5075432;28;20513;-57
2022/12/08 00:48:13;;;;;;;21.08;9.93;;;;;;;;;;5069425;28;20059;-58
2022/12/08 00:50:38;;;;;;;19.88;9.48;;;;;;;;;;5077101;28;20136;-57
2022/12/08 00:53:04;;;;;;;23.85;9.13;;;;;;;;;;5089017;28;20037;-58
2022/12/08 00:55:29;;;;;;;20.67;9.90;;;;;;;;;;5069932;28;20379;-56
2022/12/08 00:57:54;;;;;;;20.20;8.45;;;;;;;;;;5074334;28;20020;-58
2022/12/08 01:00:19;;;;;;;18.23;9.68;;;;;;;;;;5075203;28;20024;-56
2022/12/08 01:02:45;;;;;;;17.80;9.65;;;;;;;;;;5073995;28;20032;-56
2022/12/08 01:05:10;;;;;;;16.23;9.85;;;;;;;;;;5077049;28;20401;-56
2022/12/08 01:07:35;;;;;;;20.67;9.88;;;;;;;;;;5076816;28;20401;-55
2022/12/08 01:10:00;;;;;;;20.67;7.30;;;;;;;;;;5072254;28;20153;-55
2022/12/08 01:12:27;;;;;;;20.35;9.93;;;;;;;;;;5070112;28;20024;-56
2022/12/08 01:14:52;;;;;;;17.10;8.85;;;;;;;;;;5065958;28;20027;-57
2022/12/08 01:17:18;;;;;;;20.98;10.43;;;;;;;;;;5070802;28;20351;-55
2022/12/08 01:19:43;;;;;;;21.13;10.43;;;;;;;;;;5076906;28;20024;-57
2022/12/08 01:22:08;;;;;;;16.25;7.32;;;;;;;;;;5070858;28;20063;-55
2022/12/08 01:24:33;;;;;;;20.90;9.82;;;;;;;;;;5077796;28;20409;-56
2022/12/08 01:26:59;;;;;;;22.05;10.23;;;;;;;;;;5065149;28;20248;-56
2022/12/08 01:29:25;;;;;;;19.77;8.70;;;;;;;;;;5073354;28;20028;-55
2022/12/08 01:31:50;;;;;;;20.40;10.57;;;;;;;;;;5080541;28;20047;-55
2022/12/08 01:34:15;;;;;;;23.50;11.77;;;;;;;;;;5073097;28;20032;-58
2022/12/08 01:36:43;;;;;;;21.42;9.55;;;;;;;;;;5071752;28;20035;-55
2022/12/08 01:39:09;;;;;;;21.23;10.70;;;;;;;;;;5072267;28;20035;-58
2022/12/08 01:41:36;;;;;;;13.75;7.35;;;;;;;;;;5069535;28;20039;-55
2022/12/08 01:44:03;;;;;;;12.52;6.65;;;;;;;;;;5069056;28;20036;-56
2022/12/08 01:46:31;;;;;;;22.67;10.00;;;;;;;;;;5072162;28;20020;-55
2022/12/08 01:49:00;;;;;;;17.33;8.27;;;;;;;;;;5080143;28;20482;-56
2022/12/08 01:51:25;;;;;;;22.13;10.90;;;;;;;;;;5078351;28;20028;-56
2022/12/08 01:53:50;;;;;;;19.60;9.82;;;;;;;;;;5070921;28;20048;-58
2022/12/08 01:56:28;;;;;;;15.85;8.18;;;;;;;;;;5069872;28;20456;-58
2022/12/08 01:58:53;;;;;;;18.70;9.65;;;;;;;;;;5068633;28;20056;-56
2022/12/08 02:01:18;;;;;;;23.48;9.98;;;;;;;;;;5077169;28;20028;-56
2022/12/08 02:03:47;;;;;;;26.88;10.38;;;;;;;;;;5069734;28;20037;-59
2022/12/08 02:06:13;;;;;;;22.60;9.88;;;;;;;;;;5064285;28;20055;-57
2022/12/08 02:08:39;;;;;;;19.73;8.48;;;;;;;;;;5065621;28;20036;-57
2022/12/08 02:11:04;;;;;;;20.45;10.55;;;;;;;;;;5060817;28;20593;-58
2022/12/08 02:13:31;;;;;;;23.85;9.48;;;;;;;;;;5072220;28;20039;-58
2022/12/08 02:15:56;;;;;;;19.88;10.20;;;;;;;;;;5070573;28;20027;-57
2022/12/08 02:18:34;;;;;;;21.00;10.02;;;;;;;;;;5070864;28;20107;-58
2022/12/08 02:21:20;;;;;;;20.98;10.63;;;;;;;;;;5069329;28;20040;-58
2022/12/08 02:23:53;;;;;;;21.63;10.52;;;;;;;;;;5067160;28;20430;-58
2022/12/08 02:26:30;;;;;;;17.63;9.82;;;;;;;;;;5064035;28;20119;-57
2022/12/08 02:28:59;;;;;;;22.33;10.85;;;;;;;;;;5064805;28;20024;-57
2022/12/08 02:31:27;;;;;;;15.57;8.82;;;;;;;;;;5074860;28;20141;-58
2022/12/08 02:33:58;;;;;;;18.88;9.45;;;;;;;;;;5074702;28;20282;-58
2022/12/08 02:36:30;;;;;;;21.55;11.05;;;;;;;;;;5072677;28;20493;-58
2022/12/08 02:38:59;;;;;;;21.55;10.48;;;;;;;;;;5071739;28;20358;-56
2022/12/08 02:41:24;;;;;;;21.38;10.43;;;;;;;;;;5077238;28;20035;-56
2022/12/08 02:43:55;;;;;;;26.25;10.88;;;;;;;;;;5072605;28;20028;-57
2022/12/08 02:46:21;;;;;;;16.63;7.75;;;;;;;;;;5067837;28;20031;-57
2022/12/08 02:48:46;;;;;;;20.38;10.20;;;;;;;;;;5068877;28;20039;-57
2022/12/08 02:51:11;;;;;;;21.20;10.85;;;;;;;;;;5078470;28;20020;-57
2022/12/08 02:53:37;;;;;;;22.17;9.48;;;;;;;;;;5073709;28;20088;-58
2022/12/08 02:56:21;;;;;;;20.85;9.93;;;;;;;;;;5075935;28;20025;-57
2022/12/08 02:58:50;;;;;;;23.98;10.68;;;;;;;;;;5070180;28;20506;-58
2022/12/08 03:01:22;;;;;;;21.77;10.45;;;;;;;;;;5073255;28;20020;-58
2022/12/08 03:03:55;;;;;;;18.33;9.45;;;;;;;;;;5077635;28;20024;-57
2022/12/08 03:06:26;;;;;;;21.55;10.55;;;;;;;;;;5074861;28;20492;-57
2022/12/08 03:09:15;;;;;;;23.13;9.77;;;;;;;;;;5076510;28;20355;-57
2022/12/08 03:11:47;;;;;;;17.35;9.23;;;;;;;;;;5065255;28;20097;-57
2022/12/08 03:14:13;;;;;;;19.13;10.68;;;;;;;;;;5072910;28;20043;-57
2022/12/08 03:16:39;;;;;;;18.50;9.90;;;;;;;;;;5075627;28;20445;-57
2022/12/08 03:19:06;;;;;;;18.60;9.75;;;;;;;;;;5074581;28;20067;-58
2022/12/08 03:21:32;;;;;;;21.75;9.68;;;;;;;;;;5076611;28;20020;-58
2022/12/08 03:23:57;;;;;;;20.48;9.13;;;;;;;;;;5071066;28;20116;-57
2022/12/08 03:27:01;;;;;;;18.45;9.48;;;;;;;;;;5073902;28;20162;-57
2022/12/08 03:29:26;;;;;;;16.38;8.60;;;;;;;;;;5057187;28;20048;-58
2022/12/08 03:32:12;;;;;;;12.65;6.40;;;;;;;;;;5062384;28;20580;-58
2022/12/08 03:34:37;;;;;;;18.95;8.55;;;;;;;;;;5066376;28;20453;-57
2022/12/08 03:37:02;;;;;;;17.33;8.80;;;;;;;;;;5074331;28;20399;-56
2022/12/08 03:39:28;;;;;;;11.68;7.00;;;;;;;;;;5074877;28;20035;-57
2022/12/08 03:41:53;;;;;;;13.57;7.57;;;;;;;;;;5070936;28;20025;-57
2022/12/08 03:44:18;;;;;;;16.67;7.60;;;;;;;;;;5080330;28;20034;-58
2022/12/08 03:46:44;;;;;;;17.95;7.47;;;;;;;;;;5073518;28;20032;-56
2022/12/08 03:49:10;;;;;;;16.58;8.65;;;;;;;;;;5074286;28;20073;-56
2022/12/08 03:51:35;;;;;;;12.93;7.35;;;;;;;;;;5080227;28;20024;-57
2022/12/08 03:54:00;;;;;;;14.27;7.63;;;;;;;;;;5073165;28;20044;-58
2022/12/08 03:56:27;;;;;;;16.98;7.28;;;;;;;;;;5073315;28;20022;-56
2022/12/08 03:58:52;;;;;;;14.60;7.47;;;;;;;;;;5074429;28;20177;-56
2022/12/08 04:01:17;;;;;;;12.60;7.68;;;;;;;;;;5082793;28;20413;-55
2022/12/08 04:03:42;;;;;;;17.40;7.30;;;;;;;;;;5073357;28;20478;-55
2022/12/08 04:06:08;;;;;;;16.15;7.53;;;;;;;;;;5072905;28;20275;-56
2022/12/08 04:08:33;;;;;;;14.60;7.40;;;;;;;;;;5076184;28;20028;-56
2022/12/08 04:10:58;;;;;;;13.07;7.63;;;;;;;;;;5076110;28;20517;-56
2022/12/08 04:13:24;;;;;;;12.23;6.18;;;;;;;;;;5071945;28;20047;-55
2022/12/08 04:15:49;;;;;;;9.27;5.07;;;;;;;;;;5069629;28;20035;-56
2022/12/08 04:18:14;;;;;;;12.27;6.97;;;;;;;;;;5073444;28;20546;-56
2022/12/08 04:20:40;;;;;;;15.82;7.55;;;;;;;;;;5071793;28;20032;-57
2022/12/08 04:23:05;;;;;;;13.43;6.93;;;;;;;;;;5072187;28;20028;-57
2022/12/08 04:25:31;;;;;;;13.32;7.35;;;;;;;;;;5069518;28;20028;-57
2022/12/08 04:27:56;;;;;;;13.13;6.47;;;;;;;;;;5067731;28;20067;-57
2022/12/08 04:30:21;;;;;;;13.32;6.68;;;;;;;;;;5067347;28;20281;-57
2022/12/08 04:32:46;;;;;;;14.38;6.88;;;;;;;;;;5069372;28;20040;-57
2022/12/08 04:35:12;;;;;;;12.30;7.22;;;;;;;;;;5071652;28;20474;-56
2022/12/08 04:37:37;;;;;;;12.18;7.07;;;;;;;;;;5073973;28;20521;-56
2022/12/08 04:40:02;;;;;;;14.57;7.32;;;;;;;;;;5068942;28;20462;-57
2022/12/08 04:42:28;;;;;;;13.05;7.38;;;;;;;;;;5074719;28;20474;-55
2022/12/08 04:44:53;;;;;;;10.93;6.50;;;;;;;;;;5073338;28;20031;-57
2022/12/08 04:47:19;;;;;;;11.90;7.55;;;;;;;;;;5067030;28;21448;-56
2022/12/08 04:49:44;;;;;;;13.75;8.18;;;;;;;;;;5074235;28;20048;-56
2022/12/08 04:52:10;;;;;;;13.55;7.40;;;;;;;;;;5075653;28;20028;-56
2022/12/08 04:54:35;;;;;;;12.60;7.43;;;;;;;;;;5070171;28;20028;-57
2022/12/08 04:57:00;;;;;;;14.10;7.78;;;;;;;;;;5078131;28;20028;-56
2022/12/08 04:59:25;;;;;;;12.50;7.15;;;;;;;;;;5071446;28;20033;-57
2022/12/08 05:01:51;;;;;;;10.07;5.90;;;;;;;;;;5072489;28;20103;-57
2022/12/08 05:04:16;;;;;;;11.80;6.97;;;;;;;;;;5072313;28;20043;-56
2022/12/08 05:06:41;;;;;;;14.23;7.47;;;;;;;;;;5071756;28;20028;-56
2022/12/08 05:09:06;;;;;;;12.40;7.60;;;;;;;;;;5074943;28;20030;-56
2022/12/08 05:11:32;;;;;;;20.10;9.15;;;;;;;;;;5078987;28;20107;-57
2022/12/08 05:13:57;;;;;;;13.77;6.90;;;;;;;;;;5071194;28;20126;-56
2022/12/08 05:16:22;;;;;;;15.02;8.13;;;;;;;;;;5071465;28;20024;-56
2022/12/08 05:18:47;;;;;;;17.05;8.77;;;;;;;;;;5075570;28;20599;-56
2022/12/08 05:21:13;;;;;;;16.55;8.05;;;;;;;;;;5075614;28;20027;-56
2022/12/08 05:23:38;;;;;;;15.18;8.00;;;;;;;;;;5076395;28;20101;-58
2022/12/08 05:26:03;;;;;;;14.45;8.10;;;;;;;;;;5068061;28;20433;-59
2022/12/08 05:28:28;;;;;;;18.45;8.50;;;;;;;;;;5071973;28;20124;-56
2022/12/08 05:30:54;;;;;;;16.88;8.63;;;;;;;;;;5070878;28;20031;-56
2022/12/08 05:33:19;;;;;;;17.83;6.95;;;;;;;;;;5070920;28;20036;-57
2022/12/08 05:35:44;;;;;;;13.45;8.13;;;;;;;;;;5066703;28;20483;-56
2022/12/08 05:38:09;;;;;;;15.80;8.23;;;;;;;;;;5067725;28;20520;-57
2022/12/08 05:40:38;;;;;;;15.85;8.63;;;;;;;;;;5075870;28;20020;-56
2022/12/08 05:43:03;;;;;;;13.48;7.85;;;;;;;;;;5077442;28;20024;-57
2022/12/08 05:45:29;;;;;;;14.52;8.23;;;;;;;;;;5070759;28;20030;-57
2022/12/08 05:47:54;;;;;;;16.88;8.70;;;;;;;;;;5067762;28;20467;-57
2022/12/08 05:50:19;;;;;;;15.05;7.07;;;;;;;;;;5071544;28;20060;-56
2022/12/08 05:52:44;;;;;;;14.95;8.07;;;;;;;;;;5074061;28;20531;-57
2022/12/08 05:55:10;;;;;;;16.15;8.52;;;;;;;;;;5072862;28;20028;-57
2022/12/08 05:57:35;;;;;;;18.63;8.23;;;;;;;;;;5066444;28;20119;-59
2022/12/08 06:00:00;;;;;;;14.10;7.45;;;;;;;;;;5093316;28;20432;-58
2022/12/08 06:02:25;;;;;;;20.20;7.85;;;;;;;;;;5075508;28;20048;-57
2022/12/08 06:04:51;;;;;;;17.75;8.00;;;;;;;;;;5069874;28;20409;-56
2022/12/08 06:07:16;;;;;;;11.27;5.95;;;;;;;;;;5072001;28;20019;-57
2022/12/08 06:09:41;;;;;;;15.05;8.13;;;;;;;;;;5077920;28;20449;-58
2022/12/08 06:12:07;;;;;;;15.43;7.40;;;;;;;;;;5078519;28;20117;-56
2022/12/08 06:14:32;;;;;;;15.68;8.32;;;;;;;;;;5074132;28;20068;-56
2022/12/08 06:16:57;;;;;;;14.48;7.90;;;;;;;;;;5072515;28;20032;-58
2022/12/08 06:19:22;;;;;;;13.85;7.80;;;;;;;;;;5071115;28;20032;-57
2022/12/08 06:21:48;;;;;;;14.82;8.30;;;;;;;;;;5079485;28;20024;-56
2022/12/08 06:24:13;;;;;;;12.27;6.65;;;;;;;;;;5084372;28;20036;-56
2022/12/08 06:26:40;;;;;;;15.00;7.28;;;;;;;;;;5070011;28;20021;-57
2022/12/08 06:29:05;;;;;;;13.55;7.47;;;;;;;;;;5073500;28;20032;-57
2022/12/08 06:31:30;;;;;;;17.42;6.22;;;;;;;;;;5079886;28;20028;-58
2022/12/08 06:33:55;;;;;;;13.80;7.18;;;;;;;;;;5070976;28;20028;-56
2022/12/08 06:36:22;;;;;;;15.10;8.80;;;;;;;;;;5076500;28;20064;-57
2022/12/08 06:38:47;;;;;;;13.13;7.57;;;;;;;;;;5074221;28;20028;-58
2022/12/08 06:41:12;;;;;;;18.75;8.45;;;;;;;;;;5076584;28;20505;-57
2022/12/08 06:43:38;;;;;;;16.60;8.07;;;;;;;;;;5072670;28;20036;-57
2022/12/08 06:46:04;;;;;;;18.45;8.63;;;;;;;;;;5079075;28;20019;-57
2022/12/08 06:48:29;;;;;;;14.70;7.63;;;;;;;;;;5079200;28;20031;-57
2022/12/08 06:50:54;;;;;;;15.00;7.50;;;;;;;;;;5075688;28;20022;-57
2022/12/08 06:53:20;;;;;;;10.95;4.40;;;;;;;;;;5072293;28;20032;-57
2022/12/08 06:55:48;;;;;;;13.85;7.85;;;;;;;;;;5077581;28;20075;-57
2022/12/08 06:58:14;;;;;;;13.93;6.90;;;;;;;;;;5075879;28;20030;-56
2022/12/08 07:00:39;;;;;;;13.15;7.10;;;;;;;;;;5076393;28;20024;-57
2022/12/08 07:03:05;;;;;;;16.25;7.20;;;;;;;;;;5074748;28;20033;-56
2022/12/08 07:05:30;;;;;;;13.82;6.93;;;;;;;;;;5074032;28;20127;-56
2022/12/08 07:07:56;;;;;;;14.40;7.97;;;;;;;;;;5074363;28;20286;-57
2022/12/08 07:10:21;;;;;;;12.43;7.03;;;;;;;;;;5075970;28;20021;-57
2022/12/08 07:12:46;;;;;;;15.27;6.28;;;;;;;;;;5071132;28;20024;-55
2022/12/08 07:15:11;;;;;;;13.50;7.18;;;;;;;;;;5078842;28;20426;-56
2022/12/08 07:17:37;;;;;;;17.05;7.35;;;;;;;;;;5082749;28;20051;-58
2022/12/08 07:20:02;;;;;;;10.00;4.90;;;;;;;;;;5077669;28;20311;-56
2022/12/08 07:22:27;;;;;;;14.75;6.82;;;;;;;;;;5070849;28;20103;-57
2022/12/08 07:24:52;;;;;;;15.10;7.40;;;;;;;;;;5068808;28;20078;-57
2022/12/08 07:27:18;;;;;;;11.70;7.00;;;;;;;;;;5068381;28;20020;-56
2022/12/08 07:29:43;;;;;;;11.70;6.22;;;;;;;;;;5074452;28;20077;-55
2022/12/08 07:32:08;;;;;;;12.75;6.53;;;;;;;;;;5074183;28;20719;-56
2022/12/08 07:34:33;;;;;;;16.75;7.03;;;;;;;;;;5072973;28;20032;-57
2022/12/08 07:36:59;;;;;;;13.55;6.55;;;;;;;;;;5087512;28;20081;-56
2022/12/08 07:39:24;;;;;;;13.20;7.13;;;;;;;;;;5077083;28;20024;-57
2022/12/08 07:41:49;;;;;;;13.18;7.57;;;;;;;;;;5072057;28;20354;-55
2022/12/08 07:44:14;;;;;;;13.32;6.07;;;;;;;;;;5078114;28;20035;-57
2022/12/08 07:46:40;;;;;;;10.85;6.45;;;;;;;;;;5070844;28;20438;-56
2022/12/08 07:49:05;;;;;;;11.82;6.20;;;;;;;;;;5075037;28;20081;-56
2022/12/08 07:51:30;;;;;;;17.00;6.78;;;;;;;;;;5083393;28;20020;-58
2022/12/08 07:53:55;;;;;;;11.55;5.57;;;;;;;;;;5078067;28;20051;-57
2022/12/08 07:56:21;;;;;;;12.70;6.00;;;;;;;;;;5073722;28;20024;-58
2022/12/08 07:58:46;;;;;;;10.15;5.57;;;;;;;;;;5074406;28;20491;-58
2022/12/08 08:01:21;;;;;;;8.88;5.15;;;;;;;;;;5077209;28;20024;-58
2022/12/08 08:03:47;;;;;;;13.60;5.50;;;;;;;;;;5072335;28;20032;-60
2022/12/08 08:06:12;;;;;;;11.80;5.80;;;;;;;;;;5077767;28;20054;-56
2022/12/08 08:08:37;;;;;;;14.70;6.13;;;;;;;;;;5073900;28;20105;-56
2022/12/08 08:11:05;;;;;;;11.10;6.30;;;;;;;;;;5072670;28;20655;-57
2022/12/08 08:13:30;;;;;;;10.57;6.05;;;;;;;;;;5071584;28;20568;-56
2022/12/08 08:16:01;;;;;;;11.45;6.40;;;;;;;;;;5075040;28;20032;-57
2022/12/08 08:18:26;;;;;;;10.95;5.82;;;;;;;;;;5072709;28;20110;-56
2022/12/08 08:20:51;;;;;;;11.77;6.00;;;;;;;;;;5074456;28;20140;-57
2022/12/08 08:23:17;;;;;;;10.27;5.43;;;;;;;;;;5073095;28;20056;-57
2022/12/08 08:25:42;;;;;;;10.85;6.45;;;;;;;;;;5067249;28;20032;-56
2022/12/08 08:28:07;;;;;;;13.15;6.57;;;;;;;;;;5068174;28;20032;-57
2022/12/08 08:30:32;;;;;;;11.18;5.95;;;;;;;;;;5070618;28;20032;-57
2022/12/08 08:32:58;;;;;;;13.50;6.30;;;;;;;;;;5080768;28;20111;-57
2022/12/08 08:35:23;;;;;;;9.48;5.60;;;;;;;;;;5079163;28;20103;-57
2022/12/08 08:37:48;;;;;;;12.85;5.90;;;;;;;;;;5073715;28;20056;-58
2022/12/08 08:40:13;;;;;;;10.48;5.95;;;;;;;;;;5075408;28;20028;-58
2022/12/08 08:42:39;;;;;;;12.25;5.80;;;;;;;;;;5069628;28;20531;-56
2022/12/08 08:45:04;;;;;;;10.32;6.05;;;;;;;;;;5071697;28;20032;-56
2022/12/08 08:47:29;;;;;;;11.90;6.85;;;;;;;;;;5073307;28;20024;-56
2022/12/08 08:49:54;;;;;;;11.48;6.15;;;;;;;;;;5081832;28;20048;-57
2022/12/08 08:52:20;;;;;;;10.38;5.88;;;;;;;;;;5071963;28;20370;-57
2022/12/08 08:54:45;;;;;;;9.40;5.97;;;;;;;;;;5075831;28;20420;-57
2022/12/08 08:57:10;;;;;;;10.82;5.88;;;;;;;;;;5076743;28;20063;-57
2022/12/08 08:59:35;;;;;;;7.80;4.80;;;;;;;;;;5075199;28;20024;-57
2022/12/08 09:02:01;;;;;;;13.90;6.55;;;;;;;;;;5071514;28;20023;-57
2022/12/08 09:04:26;;;;;;;10.85;6.32;;;;;;;;;;5079636;28;20035;-57
2022/12/08 09:06:51;;;;;;;15.05;6.35;;;;;;;;;;5074664;28;20066;-57
2022/12/08 09:09:16;;;;;;;9.13;5.53;;;;;;;;;;5073205;28;20024;-56
2022/12/08 09:11:42;;;;;;;10.02;5.95;;;;;;;;;;5076215;28;20471;-57
2022/12/08 09:14:09;;;;;;;11.88;5.90;;;;;;;;;;5074457;28;20048;-58
2022/12/08 09:16:34;;;;;;;14.07;6.75;;;;;;;;;;5068623;28;20025;-58
2022/12/08 09:19:01;;;;;;;11.38;6.15;;;;;;;;;;5069881;28;20031;-58
2022/12/08 09:21:26;;;;;;;9.88;5.47;;;;;;;;;;5072428;28;20055;-57
2022/12/08 09:23:52;;;;;;;11.95;6.95;;;;;;;;;;5072490;28;20075;-58
2022/12/08 09:26:21;;;;;;;10.02;5.38;;;;;;;;;;5067279;28;20028;-57
2022/12/08 09:28:46;;;;;;;12.20;6.55;;;;;;;;;;5071565;28;20076;-58
2022/12/08 09:31:12;;;;;;;12.57;7.10;;;;;;;;;;5071679;28;20024;-58
2022/12/08 09:33:37;;;;;;;9.25;5.50;;;;;;;;;;5071928;28;20071;-57
2022/12/08 09:36:03;;;;;;;10.32;5.72;;;;;;;;;;5070778;28;20067;-57
2022/12/08 09:38:28;;;;;;;11.30;6.70;;;;;;;;;;5073338;28;20046;-56
2022/12/08 09:40:53;;;;;;;10.05;5.75;;;;;;;;;;5078470;28;20035;-57
2022/12/08 09:43:22;;;;;;;12.50;6.30;;;;;;;;;;5073010;28;20450;-57
2022/12/08 09:45:47;;;;;;;11.63;6.25;;;;;;;;;;5086148;28;20051;-57
2022/12/08 09:48:13;;;;;;;10.68;6.22;;;;;;;;;;5078263;28;20502;-57
2022/12/08 09:50:45;;;;;;;9.98;5.78;;;;;;;;;;5076699;28;20485;-57
2022/12/08 09:53:14;;;;;;;11.27;5.50;;;;;;;;;;5073610;28;20117;-57
2022/12/08 09:55:41;;;;;;;12.60;6.38;;;;;;;;;;5076973;28;20023;-57
2022/12/08 09:58:09;;;;;;;13.05;5.93;;;;;;;;;;5081112;28;20035;-56
2022/12/08 10:00:34;;;;;;;14.00;6.68;;;;;;;;;;5080019;28;20407;-57
2022/12/08 10:02:59;;;;;;;12.07;6.78;;;;;;;;;;5081431;28;20035;-57
2022/12/08 10:05:25;;;;;;;10.95;4.75;;;;;;;;;;5072791;28;20044;-57
2022/12/08 10:08:02;;;;;;;9.77;6.30;;;;;;;;;;5072876;28;20024;-57
2022/12/08 10:10:36;;;;;;;10.65;5.40;;;;;;;;;;5081449;28;20028;-56
2022/12/08 10:13:09;;;;;;;15.63;5.90;;;;;;;;;;5071652;28;20115;-57
2022/12/08 10:15:41;;;;;;;10.35;5.82;;;;;;;;;;5076028;28;20035;-57
2022/12/08 10:18:10;;;;;;;10.25;5.70;;;;;;;;;;5072306;28;20025;-57
2022/12/08 10:20:36;;;;;;;10.15;6.00;;;;;;;;;;5073329;28;20466;-57
2022/12/08 10:23:04;;;;;;;11.90;5.60;;;;;;;;;;5072136;28;20029;-56
2022/12/08 10:25:34;;;;;;;12.35;6.28;;;;;;;;;;5072258;28;20033;-59
2022/12/08 10:27:59;;;;;;;11.17;6.10;;;;;;;;;;5071330;28;20031;-57
2022/12/08 10:30:25;;;;;;;10.75;6.25;;;;;;;;;;5081763;28;20028;-56
2022/12/08 10:32:50;;;;;;;11.52;6.47;;;;;;;;;;5074366;28;20169;-58
2022/12/08 10:35:16;;;;;;;8.40;5.55;;;;;;;;;;5077805;28;20235;-58
2022/12/08 10:37:53;;;;;;;13.02;6.07;;;;;;;;;;5073428;28;20119;-57
2022/12/08 10:40:18;;;;;;;12.27;6.18;;;;;;;;;;5066350;28;20028;-57
2022/12/08 10:42:47;;;;;;;9.27;5.57;;;;;;;;;;5070150;28;20028;-58
2022/12/08 10:45:21;;;;;;;11.85;5.53;;;;;;;;;;5076874;28;20043;-57
2022/12/08 10:47:54;;;;;;;12.43;6.15;;;;;;;;;;5073775;28;20635;-58
2022/12/08 10:50:20;;;;;;;9.90;5.88;;;;;;;;;;5079190;28;20491;-57
2022/12/08 10:52:52;;;;;;;6.95;4.75;;;;;;;;;;5074841;28;20512;-56
2022/12/08 10:55:18;;;;;;;10.02;5.57;;;;;;;;;;5071920;28;20451;-56
2022/12/08 10:57:44;;;;;;;8.32;5.05;;;;;;;;;;5069442;28;20558;-56
2022/12/08 11:00:13;;;;;;;7.63;4.88;;;;;;;;;;5075471;28;20111;-57
2022/12/08 11:02:48;;;;;;;7.63;4.57;;;;;;;;;;5078018;28;20148;-56
2022/12/08 11:05:13;;;;;;;14.25;5.22;;;;;;;;;;5077737;28;20097;-56
2022/12/08 11:07:44;;;;;;;7.43;4.80;;;;;;;;;;5075660;28;20023;-56
2022/12/08 11:10:14;;;;;;;7.35;4.25;;;;;;;;;;5074012;28;20034;-58
2022/12/08 11:12:39;;;;;;;7.70;4.67;;;;;;;;;;5076324;28;20063;-56
2022/12/08 11:15:05;;;;;;;7.25;4.35;;;;;;;;;;5067413;28;20067;-57
2022/12/08 11:17:39;;;;;;;7.95;4.40;;;;;;;;;;5069406;28;20032;-57
2022/12/08 11:20:07;;;;;;;7.85;4.20;;;;;;;;;;5077407;28;20036;-57
2022/12/08 11:22:33;;;;;;;6.63;4.38;;;;;;;;;;5070592;28;20051;-56
2022/12/08 11:25:00;;;;;;;6.45;4.18;;;;;;;;;;5075529;28;20028;-56
2022/12/08 11:27:26;;;;;;;6.45;4.18;;;;;;;;;;5071721;28;20111;-57
2022/12/08 11:29:51;;;;;;;8.27;4.10;;;;;;;;;;5069012;28;20108;-58
2022/12/08 11:32:16;;;;;;;9.70;4.18;;;;;;;;;;5079275;28;20024;-56
2022/12/08 11:34:41;;;;;;;7.80;4.20;;;;;;;;;;5076349;28;20025;-56
2022/12/08 11:37:09;;;;;;;7.45;4.18;;;;;;;;;;5073769;28;20027;-56
2022/12/08 11:39:34;;;;;;;7.22;4.13;;;;;;;;;;5058644;28;20029;-56
2022/12/08 11:42:00;;;;;;;9.20;4.00;;;;;;;;;;5071954;28;20032;-54
2022/12/08 11:44:35;;;;;;;7.47;3.97;;;;;;;;;;5072644;28;20043;-56
2022/12/08 11:47:03;;;;;;;6.35;3.72;;;;;;;;;;5077636;28;20024;-56
2022/12/08 11:49:38;;;;;;;7.32;4.10;;;;;;;;;;5073202;28;20031;-56
2022/12/08 11:52:22;;;;;;;6.03;3.85;;;;;;;;;;5070061;28;20040;-57
2022/12/08 11:54:50;;;;;;;6.28;3.75;;;;;;;;;;5072530;28;20028;-58
2022/12/08 11:57:17;;;;;;;7.03;3.90;;;;;;;;;;5075366;28;20089;-56
2022/12/08 11:59:51;;;;;;;7.38;4.07;;;;;;;;;;5070558;28;20037;-56
2022/12/08 12:02:20;;;;;;;8.05;4.28;;;;;;;;;;5073548;28;20047;-56
2022/12/08 12:04:54;;;;;;;5.80;4.03;;;;;;;;;;5068417;28;20057;-56
2022/12/08 12:07:29;;;;;;;6.72;4.13;;;;;;;;;;5083239;28;20161;-55
2022/12/08 12:10:16;;;;;;;6.03;3.80;;;;;;;;;;5077442;28;20398;-56
2022/12/08 12:13:00;;;;;;;7.43;4.07;;;;;;;;;;5069431;28;20039;-56
2022/12/08 12:15:38;;;;;;;5.75;3.95;;;;;;;;;;5081044;28;20038;-55
2022/12/08 12:18:04;;;;;;;6.57;3.60;;;;;;;;;;5073986;28;20026;-56
2022/12/08 12:20:31;;;;;;;6.80;4.30;;;;;;;;;;5066594;28;20033;-56
2022/12/08 12:23:06;;;;;;;5.72;3.92;;;;;;;;;;5072443;28;20030;-56
2022/12/08 12:25:31;;;;;;;7.78;3.85;;;;;;;;;;5071966;28;20042;-56
2022/12/08 12:27:57;;;;;;;6.72;3.67;;;;;;;;;;5066328;28;20470;-56
2022/12/08 12:30:23;;;;;;;6.03;3.60;;;;;;;;;;5068235;28;20034;-56
2022/12/08 12:32:55;;;;;;;6.68;4.20;;;;;;;;;;5074532;28;20025;-56
2022/12/08 12:35:46;;;;;;;8.45;4.38;;;;;;;;;;5074887;28;20024;-57
2022/12/08 12:40:59;;;;;;;10.45;5.55;;;;;;;;;;5070270;28;20104;-56
2022/12/08 12:43:30;;;;;;;6.85;3.63;;;;;;;;;;5071542;28;20027;-56
2022/12/08 12:46:14;;;;;;;7.65;4.15;;;;;;;;;;5073863;28;20830;-54
2022/12/08 12:48:39;;;;;;;5.85;3.70;;;;;;;;;;5071407;28;20048;-56
2022/12/08 12:51:22;;;;;;;6.63;4.20;;;;;;;;;;5079274;28;20026;-56
2022/12/08 12:53:48;;;;;;;8.82;3.83;;;;;;;;;;5071064;28;20136;-56
2022/12/08 12:56:29;;;;;;;6.10;3.75;;;;;;;;;;5073820;28;20031;-56
2022/12/08 12:58:54;;;;;;;8.00;3.97;;;;;;;;;;5071648;28;20035;-56
2022/12/08 13:01:19;;;;;;;5.85;3.58;;;;;;;;;;5071796;28;20032;-56
2022/12/08 13:03:46;;;;;;;6.22;4.15;;;;;;;;;;5074817;28;20624;-56
2022/12/08 13:06:12;;;;;;;8.95;4.03;;;;;;;;;;5069502;28;20044;-56
2022/12/08 13:08:40;;;;;;;6.03;3.10;;;;;;;;;;5068384;28;20573;-56
2022/12/08 13:11:07;;;;;;;5.85;3.22;;;;;;;;;;5074813;28;20036;-56
2022/12/08 13:13:33;;;;;;;5.57;3.58;;;;;;;;;;5076278;28;20366;-56
2022/12/08 13:16:01;;;;;;;5.03;3.38;;;;;;;;;;5077523;28;21153;-55
2022/12/08 13:18:36;;;;;;;5.50;3.20;;;;;;;;;;5070939;28;20670;-56
2022/12/08 13:21:07;;;;;;;6.45;3.42;;;;;;;;;;5066868;28;20135;-57
2022/12/08 13:23:36;;;;;;;6.25;3.47;;;;;;;;;;5072801;28;20352;-56
2022/12/08 13:26:16;;;;;;;7.85;3.45;;;;;;;;;;5071121;28;20032;-56
2022/12/08 13:29:00;;;;;;;8.65;4.13;;;;;;;;;;5074500;28;20093;-56
2022/12/08 13:31:42;;;;;;;8.30;4.95;;;;;;;;;;5075798;28;20039;-56
2022/12/08 13:34:28;;;;;;;7.10;3.40;;;;;;;;;;5073941;28;20119;-57
2022/12/08 13:36:59;;;;;;;9.10;4.60;;;;;;;;;;5066260;28;20089;-57
2022/12/08 13:39:45;;;;;;;7.72;5.20;;;;;;;;;;5070966;28;20131;-56
2022/12/08 13:42:10;;;;;;;8.27;4.93;;;;;;;;;;5067863;28;20116;-56
2022/12/08 13:44:40;;;;;;;8.13;5.00;;;;;;;;;;5075737;28;20095;-56
2022/12/08 13:47:05;;;;;;;9.73;5.85;;;;;;;;;;5066887;28;20036;-56
2022/12/08 13:49:35;;;;;;;7.55;3.83;;;;;;;;;;5069851;28;20643;-57
2022/12/08 13:52:00;;;;;;;8.70;4.70;;;;;;;;;;5070552;28;20024;-56
2022/12/08 13:54:30;;;;;;;10.35;3.90;;;;;;;;;;5071542;28;20086;-56
2022/12/08 13:56:55;;;;;;;7.78;3.67;;;;;;;;;;5075482;28;20020;-56
2022/12/08 13:59:28;;;;;;;9.73;4.90;;;;;;;;;;5075940;28;20087;-57
2022/12/08 14:01:54;;;;;;;6.40;4.35;;;;;;;;;;5088112;28;20462;-57
2022/12/08 14:04:20;;;;;;;8.52;3.75;;;;;;;;;;5078843;28;20047;-56
2022/12/08 14:06:46;;;;;;;7.03;3.90;;;;;;;;;;5086819;28;20024;-57
2022/12/08 14:09:16;;;;;;;7.85;4.05;;;;;;;;;;5077541;28;20035;-57
2022/12/08 14:11:42;;;;;;;9.93;5.05;;;;;;;;;;5073341;28;20918;-55
2022/12/08 14:14:08;;;;;;;8.40;4.95;;;;;;;;;;5074928;28;20040;-56
2022/12/08 14:16:40;;;;;;;9.98;5.15;;;;;;;;;;5080190;28;20070;-56
2022/12/08 14:19:18;;;;;;;9.77;5.32;;;;;;;;;;5070919;28;20562;-57
2022/12/08 14:21:51;;;;;;;13.38;5.65;;;;;;;;;;5076666;28;20017;-57
2022/12/08 14:24:17;;;;;;;8.30;4.45;;;;;;;;;;5077379;28;20032;-56
2022/12/08 14:26:42;;;;;;;7.20;3.65;;;;;;;;;;5075670;28;20020;-56
2022/12/08 14:29:08;;;;;;;7.07;4.20;;;;;;;;;;5069506;28;20055;-55
2022/12/08 14:31:33;;;;;;;8.65;4.55;;;;;;;;;;5077757;28;20024;-56
2022/12/08 14:33:59;;;;;;;9.73;4.57;;;;;;;;;;5079434;28;20089;-56
2022/12/08 14:36:25;;;;;;;8.35;4.82;;;;;;;;;;5077867;28;20024;-56
2022/12/08 14:38:50;;;;;;;8.25;4.60;;;;;;;;;;5073434;28;20028;-56
2022/12/08 14:41:16;;;;;;;7.50;4.47;;;;;;;;;;5086496;28;20474;-57